Time;durP1;ratioP1;P1;durP2;ratioP2;P2;SDS_P1;SDS_P2;PMS_P1;PMS_P2;Temp;Humidity;BMP_temperature;BMP_pressure;BME280_temperature;BME280_humidity;BME280_pressure;Samples;Min_cycle;Max_cycle;Signal;HPM_P1;HPM_P2
2022/05/25 00:00:07;;;;;;;0.10;0.10;;;14.60;99.90;;;;;;4953486;28;20117;-70
2022/05/25 00:02:32;;;;;;;0.13;0.13;;;14.70;99.90;;;;;;4952917;29;20031;-70
2022/05/25 00:04:58;;;;;;;0.20;0.20;;;14.70;99.90;;;;;;4952902;29;20031;-70
2022/05/25 00:07:24;;;;;;;0.00;0.00;;;14.60;99.90;;;;;;4953246;28;20110;-70
2022/05/25 00:09:51;;;;;;;0.38;0.38;;;14.70;99.90;;;;;;4953167;29;20391;-70
2022/05/25 00:12:18;;;;;;;0.52;0.25;;;14.60;99.90;;;;;;4952819;29;20031;-70
2022/05/25 00:14:44;;;;;;;0.00;0.00;;;14.70;99.90;;;;;;4954361;28;20031;-70
2022/05/25 00:17:09;;;;;;;0.13;0.13;;;14.50;99.90;;;;;;4952486;29;20499;-69
2022/05/25 00:22:20;;;;;;;3.35;0.90;;;14.30;99.90;;;;;;4952579;29;20057;-69
2022/05/25 00:24:45;;;;;;;0.00;0.00;;;14.30;99.90;;;;;;4953590;28;20031;-69
2022/05/25 00:27:11;;;;;;;0.05;0.05;;;14.30;99.90;;;;;;4954045;28;20081;-69
2022/05/25 00:29:37;;;;;;;0.00;0.00;;;14.30;99.90;;;;;;4953207;28;20031;-69
2022/05/25 00:32:05;;;;;;;0.10;0.10;;;14.30;99.90;;;;;;4953954;28;20035;-69
2022/05/25 00:34:31;;;;;;;0.00;0.00;;;14.20;99.90;;;;;;4936741;29;20035;-70
2022/05/25 00:36:57;;;;;;;0.08;0.08;;;14.30;99.90;;;;;;4952363;29;20038;-71
2022/05/25 00:39:23;;;;;;;0.00;0.00;;;14.20;99.90;;;;;;4953024;29;20050;-70
2022/05/25 00:41:51;;;;;;;0.00;0.00;;;14.20;99.90;;;;;;4953287;29;20019;-69
2022/05/25 00:44:17;;;;;;;0.00;0.00;;;14.20;99.90;;;;;;4953255;28;20372;-69
2022/05/25 00:46:44;;;;;;;0.00;0.00;;;14.20;99.90;;;;;;4953246;29;20027;-70
2022/05/25 00:49:27;;;;;;;0.00;0.00;;;14.00;99.90;;;;;;4952737;28;20538;-70
2022/05/25 00:52:14;;;;;;;0.00;0.00;;;14.10;99.90;;;;;;4953331;28;20043;-70
2022/05/25 00:55:00;;;;;;;0.40;0.20;;;14.10;99.90;;;;;;4952000;29;20039;-70
2022/05/25 00:57:36;;;;;;;0.47;0.47;;;14.20;99.90;;;;;;4952332;29;20501;-70
2022/05/25 01:00:09;;;;;;;0.10;0.10;;;14.20;99.90;;;;;;4951459;29;20077;-70
2022/05/25 01:02:40;;;;;;;0.00;0.00;;;14.20;99.90;;;;;;4953000;29;20035;-70
2022/05/25 01:05:07;;;;;;;0.00;0.00;;;14.30;99.90;;;;;;4949644;28;20023;-70
2022/05/25 01:08:09;;;;;;;0.00;0.00;;;14.20;99.90;;;;;;4946780;28;20052;-70
2022/05/25 01:11:09;;;;;;;0.00;0.00;;;14.20;99.90;;;;;;4968685;28;20027;-70
2022/05/25 01:14:04;;;;;;;0.28;0.20;;;14.20;99.90;;;;;;4952940;29;20031;-70
2022/05/25 01:17:10;;;;;;;0.00;0.00;;;14.20;99.90;;;;;;4936690;29;20436;-70
2022/05/25 01:20:07;;;;;;;0.47;0.22;;;14.20;99.90;;;;;;4917967;29;20118;-70
2022/05/25 01:22:51;;;;;;;0.10;0.10;;;14.30;99.90;;;;;;4932365;29;20069;-70
2022/05/25 01:25:39;;;;;;;0.20;0.20;;;14.20;99.90;;;;;;4951389;29;20056;-70
2022/05/25 01:28:23;;;;;;;0.00;0.00;;;14.20;99.90;;;;;;4952663;29;20027;-70
2022/05/25 01:30:53;;;;;;;0.00;0.00;;;14.20;99.90;;;;;;4951034;29;20030;-70
2022/05/25 01:33:49;;;;;;;1.35;0.57;;;14.20;99.90;;;;;;4951020;29;20090;-70
2022/05/25 01:36:37;;;;;;;0.10;0.10;;;14.20;99.90;;;;;;4951287;29;20023;-70
2022/05/25 01:39:12;;;;;;;0.82;0.73;;;14.10;99.90;;;;;;4950863;29;20035;-70
2022/05/25 01:41:52;;;;;;;0.25;0.25;;;14.00;99.90;;;;;;4947550;29;20027;-70
2022/05/25 01:44:37;;;;;;;0.00;0.00;;;14.00;99.90;;;;;;4932418;29;20107;-70
2022/05/25 01:47:06;;;;;;;0.00;0.00;;;14.00;99.90;;;;;;4932318;29;20027;-70
2022/05/25 01:49:54;;;;;;;0.05;0.05;;;14.00;99.90;;;;;;4932609;29;20031;-70
2022/05/25 01:52:28;;;;;;;0.10;0.10;;;14.00;99.90;;;;;;4931556;29;20032;-70
2022/05/25 01:54:59;;;;;;;0.00;0.00;;;14.00;99.90;;;;;;4932269;29;20094;-70
2022/05/25 01:57:32;;;;;;;0.00;0.00;;;13.90;99.90;;;;;;4931724;29;20480;-70
2022/05/25 01:59:58;;;;;;;0.10;0.10;;;13.90;99.90;;;;;;4931522;29;20028;-70
2022/05/25 02:05:15;;;;;;;0.32;0.32;;;13.80;99.90;;;;;;4933374;29;20043;-70
2022/05/25 02:07:47;;;;;;;0.00;0.00;;;13.80;99.90;;;;;;4931850;29;20042;-70
2022/05/25 02:10:31;;;;;;;0.25;0.25;;;13.70;99.90;;;;;;4932472;29;20043;-70
2022/05/25 02:13:51;;;;;;;0.65;0.65;;;13.70;99.90;;;;;;4932880;29;20024;-70
2022/05/25 02:16:44;;;;;;;0.20;0.20;;;13.70;99.90;;;;;;4942878;29;20071;-70
2022/05/25 02:19:45;;;;;;;0.00;0.00;;;13.70;99.90;;;;;;4932146;29;20127;-70
2022/05/25 02:22:19;;;;;;;0.08;0.08;;;13.60;99.90;;;;;;4932646;29;20412;-70
2022/05/25 02:24:53;;;;;;;0.20;0.20;;;13.60;99.90;;;;;;4932670;29;20035;-70
2022/05/25 02:27:47;;;;;;;0.00;0.00;;;13.50;99.90;;;;;;4932854;29;20032;-70
2022/05/25 02:30:20;;;;;;;0.00;0.00;;;13.50;99.90;;;;;;4946487;28;20152;-70
2022/05/25 02:33:13;;;;;;;0.03;0.03;;;13.40;99.90;;;;;;4950671;29;20122;-70
2022/05/25 02:35:44;;;;;;;0.00;0.00;;;13.30;99.90;;;;;;4949937;29;20032;-70
2022/05/25 02:38:10;;;;;;;0.00;0.00;;;13.30;99.90;;;;;;4934990;29;20035;-70
2022/05/25 02:40:39;;;;;;;0.00;0.00;;;13.40;99.90;;;;;;4950604;29;20035;-70
2022/05/25 02:43:06;;;;;;;0.10;0.10;;;13.40;99.90;;;;;;4934977;29;20035;-70
2022/05/25 02:45:34;;;;;;;0.00;0.00;;;13.30;99.90;;;;;;4936507;29;20023;-70
2022/05/25 02:48:00;;;;;;;0.00;0.00;;;13.20;99.90;;;;;;4950660;29;20031;-70
2022/05/25 02:50:26;;;;;;;2.45;1.27;;;13.20;99.90;;;;;;4950731;28;20051;-70
2022/05/25 02:52:52;;;;;;;0.00;0.00;;;13.30;99.90;;;;;;4951044;29;20511;-70
2022/05/25 02:55:19;;;;;;;0.00;0.00;;;13.20;99.90;;;;;;4950783;29;20031;-70
2022/05/25 02:57:45;;;;;;;0.00;0.00;;;13.20;99.90;;;;;;4936153;29;20052;-70
2022/05/25 03:00:11;;;;;;;0.00;0.00;;;13.10;99.90;;;;;;4950045;29;20753;-71
2022/05/25 03:02:38;;;;;;;0.00;0.00;;;13.00;99.90;;;;;;4935790;29;20043;-70
2022/05/25 03:05:06;;;;;;;0.20;0.20;;;12.90;99.90;;;;;;4950505;29;20076;-70
2022/05/25 03:07:31;;;;;;;0.00;0.00;;;12.90;99.90;;;;;;4950331;29;20448;-70
2022/05/25 03:09:57;;;;;;;0.00;0.00;;;12.90;99.90;;;;;;4935224;29;20031;-70
2022/05/25 03:12:23;;;;;;;0.10;0.10;;;12.90;99.90;;;;;;4935930;29;20102;-70
2022/05/25 03:14:49;;;;;;;0.20;0.20;;;12.90;99.90;;;;;;4935684;29;20502;-70
2022/05/25 03:17:15;;;;;;;0.25;0.20;;;12.90;99.90;;;;;;4935952;29;20500;-70
2022/05/25 03:19:52;;;;;;;0.10;0.10;;;12.90;99.90;;;;;;4933665;29;20068;-70
2022/05/25 03:22:18;;;;;;;0.00;0.00;;;12.90;99.90;;;;;;4935742;29;20027;-70
2022/05/25 03:24:44;;;;;;;0.00;0.00;;;12.90;99.90;;;;;;4934370;29;20119;-70
2022/05/25 03:27:09;;;;;;;0.03;0.03;;;12.80;99.90;;;;;;4935384;29;20408;-71
2022/05/25 03:29:35;;;;;;;2.67;0.95;;;12.80;99.90;;;;;;4934846;29;20042;-70
2022/05/25 03:32:01;;;;;;;0.00;0.00;;;12.70;99.90;;;;;;4935583;29;20086;-70
2022/05/25 03:34:27;;;;;;;0.00;0.00;;;12.70;99.90;;;;;;4934091;29;20038;-71
2022/05/25 03:36:57;;;;;;;0.00;0.00;;;12.60;99.90;;;;;;4935536;29;20036;-70
2022/05/25 03:39:25;;;;;;;0.00;0.00;;;12.50;99.90;;;;;;4933575;29;20085;-70
2022/05/25 03:41:55;;;;;;;2.60;0.85;;;12.30;99.90;;;;;;4934314;29;20540;-70
2022/05/25 03:44:22;;;;;;;0.00;0.00;;;12.30;99.90;;;;;;4934282;29;20034;-70
2022/05/25 03:46:49;;;;;;;0.00;0.00;;;12.30;99.90;;;;;;4934149;29;20024;-70
2022/05/25 03:49:16;;;;;;;0.00;0.00;;;12.30;99.90;;;;;;4932998;29;20059;-70
2022/05/25 03:51:42;;;;;;;0.00;0.00;;;12.30;99.90;;;;;;4934069;29;20032;-70
2022/05/25 03:54:09;;;;;;;0.00;0.00;;;12.30;99.90;;;;;;4933723;29;20039;-70
2022/05/25 03:56:34;;;;;;;0.00;0.00;;;12.30;99.90;;;;;;4934812;29;20050;-71
2022/05/25 03:59:00;;;;;;;0.00;0.00;;;12.30;99.90;;;;;;4934293;29;20032;-70
2022/05/25 04:01:26;;;;;;;0.05;0.05;;;12.40;99.90;;;;;;4935084;29;20027;-69
2022/05/25 04:03:52;;;;;;;0.40;0.40;;;12.30;99.90;;;;;;4933760;29;20384;-69
2022/05/25 04:06:18;;;;;;;0.00;0.00;;;12.30;99.90;;;;;;4934764;29;20043;-69
2022/05/25 04:08:43;;;;;;;0.00;0.00;;;12.30;99.90;;;;;;4933896;29;20036;-69
2022/05/25 04:11:11;;;;;;;0.20;0.17;;;12.20;99.90;;;;;;4935475;29;20145;-67
2022/05/25 04:13:37;;;;;;;0.25;0.25;;;12.20;99.90;;;;;;4941083;28;20411;-66
2022/05/25 04:16:03;;;;;;;0.00;0.00;;;12.20;99.90;;;;;;4939816;29;20023;-67
2022/05/25 04:18:29;;;;;;;0.00;0.00;;;12.20;99.90;;;;;;4952237;29;20028;-57
2022/05/25 04:20:55;;;;;;;0.00;0.00;;;12.10;99.90;;;;;;4938593;29;20050;-58
2022/05/25 04:23:24;;;;;;;0.00;0.00;;;12.20;99.90;;;;;;4936624;29;20058;-56
2022/05/25 04:25:50;;;;;;;0.10;0.10;;;12.20;99.90;;;;;;4934180;29;20028;-57
2022/05/25 04:28:15;;;;;;;0.10;0.10;;;12.20;99.90;;;;;;4937097;28;20038;-57
2022/05/25 04:30:41;;;;;;;0.10;0.10;;;12.40;99.90;;;;;;4968011;28;20035;-58
2022/05/25 04:33:07;;;;;;;0.38;0.32;;;12.40;99.90;;;;;;4963678;28;20045;-57
2022/05/25 04:35:33;;;;;;;0.22;0.22;;;12.30;99.90;;;;;;4964505;28;20031;-57
2022/05/25 04:37:58;;;;;;;0.00;0.00;;;12.20;99.90;;;;;;4970520;28;20036;-59
2022/05/25 04:40:31;;;;;;;0.10;0.10;;;12.40;99.90;;;;;;4965748;28;20643;-57
2022/05/25 04:43:00;;;;;;;2.33;1.88;;;12.30;99.90;;;;;;4954071;28;20439;-57
2022/05/25 04:45:27;;;;;;;0.35;0.35;;;12.30;99.90;;;;;;4951548;29;20039;-56
2022/05/25 04:47:56;;;;;;;0.00;0.00;;;12.30;99.90;;;;;;4952792;28;20061;-60
2022/05/25 04:50:24;;;;;;;0.10;0.10;;;12.30;99.90;;;;;;4950956;29;20114;-56
2022/05/25 04:52:50;;;;;;;0.17;0.17;;;12.20;99.90;;;;;;4953097;28;20126;-59
2022/05/25 04:58:02;;;;;;;0.85;0.85;;;12.50;99.90;;;;;;4951328;28;20039;-57
2022/05/25 05:00:28;;;;;;;1.25;1.08;;;12.50;99.90;;;;;;4951749;29;20066;-57
2022/05/25 05:02:54;;;;;;;0.00;0.00;;;12.40;99.90;;;;;;4952633;29;20062;-54
2022/05/25 05:05:21;;;;;;;0.00;0.00;;;12.40;99.90;;;;;;4951341;29;20475;-57
2022/05/25 05:07:47;;;;;;;0.22;0.22;;;12.60;99.90;;;;;;4952184;28;20463;-66
2022/05/25 05:10:13;;;;;;;0.10;0.10;;;12.70;99.90;;;;;;4950655;29;20467;-66
2022/05/25 05:12:42;;;;;;;0.10;0.10;;;12.80;99.90;;;;;;4952361;28;20444;-66
2022/05/25 05:15:10;;;;;;;0.30;0.30;;;12.90;99.90;;;;;;4959908;28;20031;-66
2022/05/25 05:17:35;;;;;;;0.43;0.43;;;13.00;99.90;;;;;;4931880;29;20035;-67
2022/05/25 05:20:03;;;;;;;0.10;0.10;;;13.00;99.90;;;;;;4941905;28;20039;-67
2022/05/25 05:22:29;;;;;;;0.45;0.40;;;13.10;99.90;;;;;;4961771;28;20018;-65
2022/05/25 05:24:54;;;;;;;0.50;0.50;;;13.10;99.90;;;;;;4947456;28;20039;-66
2022/05/25 05:27:20;;;;;;;0.50;0.50;;;13.20;99.90;;;;;;4969511;28;20057;-66
2022/05/25 05:29:46;;;;;;;0.15;0.15;;;13.20;99.90;;;;;;4970741;28;20039;-65
2022/05/25 05:32:12;;;;;;;0.10;0.10;;;13.30;99.90;;;;;;4971217;28;20039;-66
2022/05/25 05:34:38;;;;;;;0.43;0.43;;;13.20;99.90;;;;;;4966615;28;20026;-67
2022/05/25 05:37:16;;;;;;;0.20;0.20;;;13.40;99.90;;;;;;4960930;28;20039;-66
2022/05/25 05:39:47;;;;;;;0.10;0.10;;;13.50;99.90;;;;;;4958958;28;20134;-67
2022/05/25 05:42:17;;;;;;;0.00;0.00;;;13.60;99.90;;;;;;4909124;28;20231;-67
2022/05/25 05:44:57;;;;;;;0.43;0.30;;;13.60;99.90;;;;;;4916191;28;20102;-66
2022/05/25 05:47:39;;;;;;;0.08;0.08;;;13.60;99.90;;;;;;4951046;28;20440;-66
2022/05/25 05:50:10;;;;;;;1.45;1.15;;;13.70;99.90;;;;;;4935951;29;20110;-66
2022/05/25 05:52:36;;;;;;;0.00;0.00;;;13.70;99.90;;;;;;4950496;29;20039;-67
2022/05/25 05:55:04;;;;;;;0.03;0.03;;;13.80;99.90;;;;;;4950746;29;20114;-66
2022/05/25 05:57:33;;;;;;;0.30;0.30;;;13.90;99.90;;;;;;4950353;29;20027;-66
2022/05/25 05:59:59;;;;;;;0.00;0.00;;;13.90;99.90;;;;;;4949911;29;20042;-67
2022/05/25 06:02:25;;;;;;;0.00;0.00;;;14.00;99.90;;;;;;4950058;29;20035;-67
2022/05/25 06:04:51;;;;;;;3.20;1.48;;;14.00;99.90;;;;;;4952403;28;20031;-68
2022/05/25 06:07:16;;;;;;;0.00;0.00;;;14.10;99.90;;;;;;4955518;28;20427;-67
2022/05/25 06:09:42;;;;;;;1.13;0.20;;;14.20;99.90;;;;;;4956744;28;20510;-67
2022/05/25 06:12:08;;;;;;;3.85;0.40;;;14.30;99.90;;;;;;4954741;28;20106;-66
2022/05/25 06:14:34;;;;;;;0.20;0.20;;;14.30;99.90;;;;;;4954668;29;20039;-67
2022/05/25 06:19:44;;;;;;;0.13;0.13;;;14.30;99.90;;;;;;4947336;29;20036;-66
2022/05/25 06:22:16;;;;;;;0.10;0.10;;;14.40;99.90;;;;;;4954690;29;20034;-67
2022/05/25 06:24:46;;;;;;;1.25;1.08;;;14.50;99.90;;;;;;4954451;28;20031;-67
2022/05/25 06:27:12;;;;;;;0.10;0.08;;;14.60;99.90;;;;;;4954542;29;20686;-67
2022/05/25 06:29:43;;;;;;;0.10;0.10;;;14.70;99.90;;;;;;4933639;29;20118;-67
2022/05/25 06:32:11;;;;;;;0.70;0.70;;;14.90;99.90;;;;;;4951065;29;20059;-67
2022/05/25 06:34:39;;;;;;;0.00;0.00;;;14.90;99.90;;;;;;4950421;29;20102;-67
2022/05/25 06:37:05;;;;;;;0.00;0.00;;;14.90;99.90;;;;;;4953396;29;20065;-68
2022/05/25 06:39:37;;;;;;;0.00;0.00;;;15.00;99.90;;;;;;4953765;29;20027;-67
2022/05/25 06:42:04;;;;;;;0.10;0.10;;;15.00;99.90;;;;;;4953995;28;20049;-68
2022/05/25 06:44:31;;;;;;;14.23;2.50;;;15.10;99.90;;;;;;4954108;29;20031;-68
2022/05/25 06:46:57;;;;;;;0.28;0.28;;;15.10;99.90;;;;;;4954590;28;20086;-68
2022/05/25 06:49:22;;;;;;;0.10;0.10;;;15.20;99.90;;;;;;4949777;29;20039;-68
2022/05/25 06:51:48;;;;;;;0.25;0.25;;;15.20;99.90;;;;;;4948504;29;20035;-68
2022/05/25 06:54:18;;;;;;;0.20;0.20;;;15.30;99.90;;;;;;4950247;29;20432;-68
2022/05/25 06:56:44;;;;;;;0.00;0.00;;;15.50;99.90;;;;;;4950691;29;20035;-67
2022/05/25 06:59:10;;;;;;;0.25;0.25;;;15.60;99.90;;;;;;4950684;29;20099;-68
2022/05/25 07:01:39;;;;;;;0.17;0.17;;;15.80;99.90;;;;;;4953996;28;20031;-68
2022/05/25 07:04:06;;;;;;;0.15;0.15;;;15.90;99.90;;;;;;4952813;29;20063;-68
2022/05/25 07:06:38;;;;;;;0.05;0.05;;;16.10;99.90;;;;;;4954379;28;20738;-68
2022/05/25 07:09:06;;;;;;;0.20;0.20;;;16.20;99.90;;;;;;4951010;28;20043;-67
2022/05/25 07:11:33;;;;;;;0.08;0.08;;;16.30;99.90;;;;;;4954266;28;20045;-69
2022/05/25 07:14:00;;;;;;;0.00;0.00;;;16.40;99.90;;;;;;4954548;28;20027;-68
2022/05/25 07:16:26;;;;;;;0.00;0.00;;;16.40;99.90;;;;;;4959062;28;20114;-68
2022/05/25 07:18:53;;;;;;;0.08;0.08;;;16.40;99.90;;;;;;4954123;28;20039;-68
2022/05/25 07:21:26;;;;;;;0.05;0.05;;;16.50;99.90;;;;;;4952352;28;20677;-68
2022/05/25 07:23:54;;;;;;;0.00;0.00;;;16.50;99.90;;;;;;4946119;29;20039;-68
2022/05/25 07:26:22;;;;;;;0.22;0.22;;;16.60;99.90;;;;;;4933773;29;20087;-68
2022/05/25 07:28:51;;;;;;;0.00;0.00;;;16.70;99.90;;;;;;4933505;29;20443;-68
2022/05/25 07:31:52;;;;;;;0.22;0.17;;;16.80;99.90;;;;;;4939158;29;20031;-68
2022/05/25 07:34:25;;;;;;;;;;;16.90;99.90;;;;;;4951784;28;20031;-68
2022/05/25 07:37:02;;;;;;;0.47;0.32;;;16.90;99.10;;;;;;4953275;29;19914;-68
2022/05/25 07:39:34;;;;;;;0.43;0.25;;;16.90;98.70;;;;;;4953661;28;20027;-67
2022/05/25 07:42:03;;;;;;;0.00;0.00;;;17.00;98.50;;;;;;4952230;28;20476;-68
2022/05/25 07:44:53;;;;;;;1.38;0.60;;;17.10;98.30;;;;;;4949654;29;20030;-68
2022/05/25 07:47:18;;;;;;;0.38;0.22;;;17.20;98.30;;;;;;4946087;29;20356;-68
2022/05/25 07:49:44;;;;;;;0.32;0.20;;;17.30;97.90;;;;;;4936239;29;20042;-68
2022/05/25 07:52:10;;;;;;;0.00;0.00;;;17.30;96.90;;;;;;4953559;29;20031;-68
2022/05/25 07:54:39;;;;;;;0.08;0.08;;;17.30;96.60;;;;;;4953733;28;20035;-68
2022/05/25 07:57:05;;;;;;;0.00;0.00;;;17.40;96.20;;;;;;4951989;29;20043;-68
2022/05/25 07:59:31;;;;;;;0.63;0.63;;;17.10;96.30;;;;;;4948602;29;20111;-68
2022/05/25 08:07:37;;;;;;;0.05;0.05;;;17.60;95.40;;;;;;4952681;28;20036;-68
2022/05/25 08:10:13;;;;;;;0.10;0.10;;;17.70;95.50;;;;;;4951228;28;20027;-68
2022/05/25 08:12:40;;;;;;;0.00;0.00;;;17.80;95.90;;;;;;4951373;28;20067;-68
2022/05/25 08:15:09;;;;;;;0.00;0.00;;;17.90;95.40;;;;;;4952514;29;20043;-68
2022/05/25 08:17:36;;;;;;;0.25;0.25;;;17.70;95.40;;;;;;4953666;28;20035;-68
2022/05/25 08:20:04;;;;;;;3.25;1.10;;;17.70;95.30;;;;;;4972003;23;20054;-65
2022/05/25 08:22:29;;;;;;;0.00;0.00;;;17.70;95.20;;;;;;4967823;28;20046;-65
2022/05/25 08:24:56;;;;;;;0.00;0.00;;;17.60;94.90;;;;;;4972647;28;20031;-65
2022/05/25 08:27:22;;;;;;;3.42;0.55;;;17.70;95.20;;;;;;4966252;28;20036;-64
2022/05/25 08:29:48;;;;;;;0.00;0.00;;;18.00;94.90;;;;;;4946235;28;20031;-64
2022/05/25 08:32:14;;;;;;;0.00;0.00;;;18.00;95.30;;;;;;4948702;28;20051;-66
2022/05/25 08:34:41;;;;;;;0.00;0.00;;;18.10;94.90;;;;;;4949527;28;20031;-66
2022/05/25 08:37:07;;;;;;;0.10;0.10;;;18.20;94.20;;;;;;4951880;28;20031;-66
2022/05/25 08:39:33;;;;;;;0.00;0.00;;;18.40;94.00;;;;;;4946788;28;20039;-66
2022/05/25 08:42:05;;;;;;;0.35;0.35;;;18.70;93.90;;;;;;4941535;28;20028;-66
2022/05/25 08:44:32;;;;;;;0.00;0.00;;;19.00;93.00;;;;;;4951984;29;20075;-65
2022/05/25 08:47:03;;;;;;;0.00;0.00;;;18.90;93.10;;;;;;4950247;28;20042;-64
2022/05/25 08:49:32;;;;;;;;;;;18.70;93.30;;;;;;4945533;28;20114;-66
2022/05/25 08:52:02;;;;;;;0.00;0.00;;;18.90;93.00;;;;;;4944372;28;19917;-66
2022/05/25 08:54:29;;;;;;;0.80;0.55;;;18.90;92.90;;;;;;4944908;28;20098;-66
2022/05/25 08:57:32;;;;;;;0.00;0.00;;;19.00;92.00;;;;;;4941569;28;20039;-66
2022/05/25 09:00:07;;;;;;;0.00;0.00;;;18.70;92.00;;;;;;4948220;29;20067;-66
2022/05/25 09:03:19;;;;;;;0.93;0.75;;;18.90;92.60;;;;;;4951278;28;20048;-66
2022/05/25 09:05:51;;;;;;;0.00;0.00;;;19.30;92.10;;;;;;4936763;28;20027;-66
2022/05/25 09:08:47;;;;;;;0.00;0.00;;;19.40;91.30;;;;;;4949244;28;20103;-66
2022/05/25 09:11:38;;;;;;;0.10;0.08;;;19.50;90.90;;;;;;4950157;28;20031;-65
2022/05/25 09:14:12;;;;;;;0.00;0.00;;;19.10;90.80;;;;;;4946728;28;20114;-65
2022/05/25 09:16:39;;;;;;;2.80;0.88;;;19.30;91.10;;;;;;4948937;28;20082;-67
2022/05/25 09:19:36;;;;;;;0.00;0.00;;;19.80;90.30;;;;;;4949642;28;20495;-65
2022/05/25 09:22:06;;;;;;;0.00;0.00;;;19.80;90.00;;;;;;4948656;28;20079;-64
2022/05/25 09:24:33;;;;;;;0.10;0.03;;;19.60;89.40;;;;;;4935087;29;20387;-68
2022/05/25 09:27:02;;;;;;;0.00;0.00;;;19.30;89.70;;;;;;4951488;28;20024;-65
2022/05/25 09:29:28;;;;;;;0.00;0.00;;;19.20;90.00;;;;;;4950337;29;20034;-65
2022/05/25 09:32:27;;;;;;;1.27;0.40;;;19.20;90.20;;;;;;4952253;28;20023;-65
2022/05/25 09:35:06;;;;;;;0.00;0.00;;;19.30;90.10;;;;;;4952270;29;20499;-66
2022/05/25 09:37:50;;;;;;;0.70;0.70;;;19.70;89.30;;;;;;4946445;28;20678;-65
2022/05/25 09:40:39;;;;;;;0.10;0.10;;;19.70;90.00;;;;;;4945563;28;20043;-67
2022/05/25 09:43:09;;;;;;;0.05;0.05;;;19.50;90.50;;;;;;4951132;28;20070;-67
2022/05/25 09:45:44;;;;;;;0.00;0.00;;;19.40;90.50;;;;;;4951923;28;20028;-66
2022/05/25 09:48:30;;;;;;;0.22;0.22;;;19.50;90.00;;;;;;4946837;28;20058;-66
2022/05/25 09:51:21;;;;;;;0.43;0.38;;;19.80;89.40;;;;;;4951929;28;20035;-67
2022/05/25 09:54:26;;;;;;;0.10;0.10;;;20.00;87.90;;;;;;4945838;28;20032;-68
2022/05/25 09:57:06;;;;;;;0.05;0.05;;;20.30;87.20;;;;;;4941786;28;20066;-67
2022/05/25 09:59:34;;;;;;;0.20;0.20;;;20.30;87.70;;;;;;4950189;29;20122;-66
2022/05/25 10:02:00;;;;;;;0.00;0.00;;;20.40;87.20;;;;;;4948878;28;20291;-66
2022/05/25 10:04:56;;;;;;;0.00;0.00;;;19.90;86.80;;;;;;4892578;28;20041;-66
2022/05/25 10:07:37;;;;;;;0.00;0.00;;;20.10;88.10;;;;;;4936480;28;20031;-66
2022/05/25 10:10:12;;;;;;;0.08;0.08;;;20.50;86.90;;;;;;4960633;28;20050;-66
2022/05/25 10:12:38;;;;;;;0.00;0.00;;;20.60;86.40;;;;;;4966122;28;20388;-65
2022/05/25 10:15:13;;;;;;;0.03;0.03;;;20.70;86.90;;;;;;4964999;28;20035;-65
2022/05/25 10:17:46;;;;;;;0.85;0.65;;;21.10;84.30;;;;;;4965334;28;20026;-65
2022/05/25 10:20:30;;;;;;;0.00;0.00;;;21.10;83.30;;;;;;4955215;28;20513;-65
2022/05/25 10:23:24;;;;;;;0.30;0.30;;;21.40;82.50;;;;;;4955609;28;20570;-65
2022/05/25 10:26:17;;;;;;;0.00;0.00;;;21.30;81.30;;;;;;4963697;28;20681;-65
2022/05/25 10:28:54;;;;;;;0.00;0.00;;;21.40;79.60;;;;;;4947688;28;20046;-65
2022/05/25 10:36:59;;;;;;;0.00;0.00;;;20.90;81.20;;;;;;4970147;28;20038;-65
2022/05/25 10:39:35;;;;;;;0.00;0.00;;;20.90;81.90;;;;;;4952861;28;20027;-65
2022/05/25 10:42:28;;;;;;;0.00;0.00;;;21.00;81.40;;;;;;4970037;28;20423;-65
2022/05/25 10:44:59;;;;;;;0.30;0.30;;;21.00;81.80;;;;;;4970911;28;20074;-65
2022/05/25 10:47:44;;;;;;;0.20;0.15;;;20.90;80.00;;;;;;4970441;28;20038;-65
2022/05/25 10:50:21;;;;;;;1.85;0.75;;;21.00;81.10;;;;;;4968670;28;20031;-65
2022/05/25 10:53:17;;;;;;;0.00;0.00;;;21.30;80.40;;;;;;4965317;28;20439;-64
2022/05/25 10:56:40;;;;;;;0.00;0.00;;;21.40;81.00;;;;;;4948163;28;20031;-65
2022/05/25 10:59:39;;;;;;;0.00;0.00;;;21.30;80.30;;;;;;4887928;29;20052;-65
2022/05/25 11:02:42;;;;;;;0.00;0.00;;;21.40;81.10;;;;;;4887585;29;20498;-65
2022/05/25 11:05:45;;;;;;;0.00;0.00;;;21.20;80.10;;;;;;4894843;29;20226;-65
2022/05/25 11:08:17;;;;;;;4.40;0.63;;;21.00;80.90;;;;;;4888028;29;20535;-65
2022/05/25 11:11:05;;;;;;;0.00;0.00;;;20.80;78.80;;;;;;4894601;29;20078;-65
2022/05/25 11:14:06;;;;;;;0.65;0.55;;;20.70;80.10;;;;;;4879333;29;20041;-65
2022/05/25 11:16:50;;;;;;;0.00;0.00;;;20.90;79.70;;;;;;4883257;29;20052;-66
2022/05/25 11:19:50;;;;;;;0.00;0.00;;;20.70;79.30;;;;;;4875248;29;20137;-67
2022/05/25 11:22:29;;;;;;;0.00;0.00;;;20.90;79.90;;;;;;4883564;29;20079;-65
2022/05/25 11:25:32;;;;;;;0.25;0.10;;;21.10;77.30;;;;;;4894801;29;20814;-65
2022/05/25 11:28:16;;;;;;;1.73;0.55;;;20.80;76.00;;;;;;4889126;29;20040;-66
2022/05/25 11:31:06;;;;;;;0.00;0.00;;;20.90;75.60;;;;;;4958934;28;20039;-65
2022/05/25 11:34:06;;;;;;;0.00;0.00;;;21.00;75.60;;;;;;4955675;28;20035;-66
2022/05/25 11:37:01;;;;;;;0.00;0.00;;;21.10;76.00;;;;;;4968034;28;20039;-66
2022/05/25 11:39:48;;;;;;;0.00;0.00;;;21.40;73.10;;;;;;4972384;28;20080;-66
2022/05/25 11:42:27;;;;;;;0.00;0.00;;;21.90;72.00;;;;;;4954858;28;20452;-66
2022/05/25 11:45:48;;;;;;;0.00;0.00;;;22.20;70.70;;;;;;4955424;28;20027;-65
2022/05/25 11:48:39;;;;;;;0.00;0.00;;;22.30;68.90;;;;;;4969812;28;20073;-66
2022/05/25 11:51:17;;;;;;;;;;;22.60;68.70;;;;;;4953254;28;20061;-66
2022/05/25 11:54:22;;;;;;;0.00;0.00;;;22.70;66.60;;;;;;4946867;28;19910;-66
2022/05/25 11:56:53;;;;;;;0.00;0.00;;;22.60;67.50;;;;;;4956897;28;20129;-66
2022/05/25 11:59:44;;;;;;;0.00;0.00;;;22.70;67.00;;;;;;4971872;28;20046;-65
2022/05/25 12:02:28;;;;;;;0.00;0.00;;;22.60;66.60;;;;;;4952254;28;20038;-66
2022/05/25 12:05:27;;;;;;;0.00;0.00;;;22.60;65.60;;;;;;4968468;28;20049;-66
2022/05/25 12:08:47;;;;;;;0.00;0.00;;;22.20;66.10;;;;;;4967854;28;20035;-65
2022/05/25 12:11:38;;;;;;;0.00;0.00;;;21.80;68.70;;;;;;4965054;28;20039;-65
2022/05/25 12:14:29;;;;;;;0.00;0.00;;;22.20;70.10;;;;;;4965660;28;20031;-66
2022/05/25 12:17:05;;;;;;;0.00;0.00;;;22.70;65.40;;;;;;4972261;28;20039;-65
2022/05/25 12:19:35;;;;;;;0.32;0.17;;;21.90;65.70;;;;;;4953795;28;20518;-65
2022/05/25 12:22:14;;;;;;;0.00;0.00;;;22.00;65.60;;;;;;4952912;28;20521;-66
2022/05/25 12:25:07;;;;;;;0.00;0.00;;;22.30;66.00;;;;;;4955679;28;20738;-66
2022/05/25 12:27:47;;;;;;;0.00;0.00;;;22.40;65.60;;;;;;4947769;28;20031;-65
2022/05/25 12:30:22;;;;;;;0.00;0.00;;;22.60;64.70;;;;;;4948397;28;20023;-66
2022/05/25 12:32:49;;;;;;;0.43;0.20;;;22.50;64.40;;;;;;4949506;28;20374;-67
2022/05/25 12:35:16;;;;;;;0.00;0.00;;;22.30;64.40;;;;;;4935966;28;20038;-66
2022/05/25 12:37:46;;;;;;;0.00;0.00;;;22.00;65.60;;;;;;4969165;28;20038;-66
2022/05/25 12:40:13;;;;;;;2.97;1.17;;;21.90;65.70;;;;;;4971061;28;20109;-66
2022/05/25 12:42:45;;;;;;;0.00;0.00;;;22.00;66.50;;;;;;4971820;28;20042;-65
2022/05/25 12:48:33;;;;;;;0.00;0.00;;;22.50;65.70;;;;;;4967377;28;20409;-67
2022/05/25 12:51:26;;;;;;;0.00;0.00;;;22.60;66.70;;;;;;4951468;28;20030;-65
2022/05/25 12:53:54;;;;;;;0.35;0.35;;;22.40;65.70;;;;;;4947750;28;20075;-65
2022/05/25 12:56:23;;;;;;;0.73;0.63;;;22.30;66.20;;;;;;4966594;28;20372;-66
2022/05/25 12:58:50;;;;;;;0.00;0.00;;;22.40;64.40;;;;;;4946942;28;20035;-66
2022/05/25 13:01:26;;;;;;;0.00;0.00;;;22.40;64.50;;;;;;4968011;28;20158;-66
2022/05/25 13:03:55;;;;;;;0.00;0.00;;;22.70;64.90;;;;;;4969757;28;20043;-66
2022/05/25 13:06:30;;;;;;;0.00;0.00;;;22.60;64.30;;;;;;4971792;28;20039;-66
2022/05/25 13:08:55;;;;;;;0.00;0.00;;;22.40;65.70;;;;;;4970958;28;20166;-66
2022/05/25 13:11:49;;;;;;;0.00;0.00;;;22.30;66.70;;;;;;4971485;28;20117;-66
2022/05/25 13:14:17;;;;;;;0.15;0.15;;;22.40;66.10;;;;;;4954042;28;20259;-66
2022/05/25 13:16:47;;;;;;;0.00;0.00;;;23.00;64.90;;;;;;4970950;28;20066;-66
2022/05/25 13:19:34;;;;;;;0.20;0.20;;;23.00;64.90;;;;;;4968268;28;20058;-66
2022/05/25 13:22:27;;;;;;;0.00;0.00;;;22.90;65.00;;;;;;4955775;28;20483;-66
2022/05/25 13:25:04;;;;;;;0.00;0.00;;;22.50;64.90;;;;;;4962119;28;20046;-66
2022/05/25 13:28:25;;;;;;;0.00;0.00;;;22.50;65.10;;;;;;4950417;28;20414;-66
2022/05/25 13:31:35;;;;;;;0.00;0.00;;;22.40;63.90;;;;;;4896982;28;20047;-66
2022/05/25 13:34:18;;;;;;;0.00;0.00;;;23.40;63.60;;;;;;4954696;28;20101;-66
2022/05/25 13:36:55;;;;;;;0.43;0.28;;;24.40;61.80;;;;;;4913284;28;20047;-66
2022/05/25 13:39:26;;;;;;;0.08;0.08;;;24.40;61.60;;;;;;4945291;28;20034;-66
2022/05/25 13:42:10;;;;;;;1.35;0.70;;;24.20;60.60;;;;;;4953427;28;20081;-66
2022/05/25 13:45:02;;;;;;;0.00;0.00;;;24.10;62.50;;;;;;4954251;28;20103;-66
2022/05/25 13:47:28;;;;;;;0.13;0.13;;;25.00;60.60;;;;;;4969131;28;20053;-66
2022/05/25 13:49:58;;;;;;;0.25;0.25;;;24.80;61.40;;;;;;4970201;28;20031;-66
2022/05/25 13:52:33;;;;;;;0.22;0.22;;;24.40;61.30;;;;;;4967866;28;20031;-66